createdAt,value
2018-05-26T00:01:04.422Z,75.79
2018-05-26T00:02:13.434Z,75.65
2018-05-26T00:03:22.574Z,75.65
2018-05-26T00:04:31.436Z,75.46
2018-05-26T00:05:40.573Z,75.02
2018-05-26T00:06:49.442Z,75.4
2018-05-26T00:07:58.407Z,75.18
2018-05-26T00:09:07.545Z,74.98
2018-05-26T00:10:16.408Z,75.95
2018-05-26T00:11:25.549Z,76.04
2018-05-26T00:12:34.692Z,76.04
2018-05-26T00:13:43.559Z,75.85
2018-05-26T00:14:52.975Z,75.08
2018-05-26T00:16:01.841Z,75.46
2018-05-26T00:17:10.704Z,75.46
2018-05-26T00:18:19.572Z,75.95
2018-05-26T00:19:28.429Z,76.23
2018-05-26T00:20:37.293Z,76.14
2018-05-26T00:21:46.161Z,76.52
2018-05-26T00:22:55.298Z,77.09
2018-05-26T00:24:07.188Z,76.52
2018-05-26T00:25:16.684Z,77.09
2018-05-26T00:26:25.823Z,77.48
2018-05-26T00:27:34.684Z,77
2018-05-26T00:28:43.545Z,76.9
2018-05-26T00:29:52.410Z,77.76
2018-05-26T00:31:01.525Z,77.44
2018-05-26T00:32:10.392Z,77.38
2018-05-26T00:33:19.249Z,77.76
2018-05-26T00:34:28.111Z,78.05
2018-05-26T00:35:37.247Z,78.05
2018-05-26T00:36:46.258Z,78.3
2018-05-26T00:37:55.123Z,78.69
2018-05-26T00:39:04.266Z,79.45
2018-05-26T00:40:13.406Z,79.26
2018-05-26T00:41:22.548Z,78.2
2018-05-26T00:42:31.762Z,79.55
2018-05-26T00:43:40.623Z,78.88
2018-05-26T00:44:49.485Z,78.78
2018-05-26T00:45:58.347Z,78.59
2018-05-26T00:47:07.213Z,78.2
2018-05-26T00:48:16.224Z,78.88
2018-05-26T00:49:25.369Z,79.36
2018-05-26T00:50:34.227Z,79.55
2018-05-26T00:51:43.091Z,79.55
2018-05-26T00:52:52.244Z,79.45
2018-05-26T00:54:01.253Z,79.55
2018-05-26T00:55:10.389Z,80.51
2018-05-26T00:56:19.250Z,81.18
2018-05-26T00:57:28.112Z,81.85
2018-05-26T00:58:37.250Z,80.89
2018-05-26T00:59:46.460Z,80.89
2018-05-26T01:00:55.322Z,81.18
2018-05-26T01:02:04.188Z,81.95
2018-05-26T01:03:13.048Z,81.85
2018-05-26T01:04:21.907Z,81.95
2018-05-26T01:05:30.824Z,81.85
2018-05-26T01:06:39.964Z,82.04
2018-05-26T01:07:48.824Z,83.09
2018-05-26T01:08:57.685Z,82.52
2018-05-26T01:10:06.546Z,82.71
2018-05-26T01:11:15.689Z,82.48
2018-05-26T01:12:24.826Z,82.32
2018-05-26T01:13:33.689Z,81.75
2018-05-26T01:14:42.552Z,82.9
2018-05-26T01:15:51.415Z,82.67
2018-05-26T01:17:00.427Z,82.76
2018-05-26T01:18:09.572Z,83.53
2018-05-26T01:19:18.434Z,82.67
2018-05-26T01:20:27.570Z,83.92
2018-05-26T01:21:36.432Z,83.34
2018-05-26T01:22:45.575Z,83.44
2018-05-26T01:23:54.712Z,83.72
2018-05-26T01:25:03.863Z,84.3
2018-05-26T01:26:12.727Z,84.01
2018-05-26T01:27:21.588Z,83.92
2018-05-26T01:28:30.599Z,84.97
2018-05-26T01:29:39.749Z,85.25
2018-05-26T01:30:48.884Z,85.06
2018-05-26T01:31:58.026Z,83.92
2018-05-26T01:33:07.167Z,84.88
2018-05-26T01:34:16.124Z,84.68
2018-05-26T01:35:24.985Z,84.39
2018-05-26T01:36:33.848Z,84.78
2018-05-26T01:37:43.009Z,84.58
2018-05-26T01:38:51.873Z,84.78
2018-05-26T01:40:00.788Z,85.45
2018-05-26T01:41:09.932Z,85.54
2018-05-26T01:42:18.790Z,83.97
2018-05-26T01:43:27.651Z,84.39
2018-05-26T01:44:36.513Z,85.35
2018-05-26T01:45:45.802Z,84.49
2018-05-26T01:46:54.946Z,84.88
2018-05-26T01:48:04.092Z,85.74
2018-05-26T01:49:12.955Z,85.93
2018-05-26T01:50:21.836Z,86.31
2018-05-26T01:51:30.733Z,86.46
2018-05-26T01:52:39.596Z,86.46
2018-05-26T01:53:48.459Z,85.6
2018-05-26T01:54:57.882Z,86.27
2018-05-26T01:56:06.747Z,86.46
2018-05-26T01:57:15.884Z,86.46
2018-05-26T01:58:24.747Z,86.74
2018-05-26T01:59:33.613Z,86.46
2018-05-26T02:00:42.474Z,86.74
2018-05-26T02:01:51.335Z,86.74
2018-05-26T02:03:00.398Z,87.13
2018-05-26T02:04:09.814Z,86.46
2018-05-26T02:05:18.681Z,86.74
2018-05-26T02:06:28.105Z,86.36
2018-05-26T02:07:36.969Z,86.65
2018-05-26T02:08:46.385Z,86.65
2018-05-26T02:09:55.247Z,87.32
2018-05-26T02:11:04.391Z,88.09
2018-05-26T02:12:13.541Z,87.51
2018-05-26T02:13:22.401Z,87.41
2018-05-26T02:14:31.589Z,86.84
2018-05-26T02:15:40.739Z,87.61
2018-05-26T02:16:49.598Z,87.23
2018-05-26T02:17:58.461Z,87.23
2018-05-26T02:19:07.317Z,87.23
2018-05-26T02:20:16.179Z,86.94
2018-05-26T02:21:25.042Z,87.8
2018-05-26T02:22:33.902Z,87.61
2018-05-26T02:23:43.041Z,88.76
2018-05-26T02:24:51.904Z,88.71
2018-05-26T02:26:00.813Z,87.85
2018-05-26T02:27:09.951Z,88.37
2018-05-26T02:28:18.815Z,88.71
2018-05-26T02:29:27.676Z,88.33
2018-05-26T02:30:36.543Z,88.33
2018-05-26T02:31:45.734Z,88.52
2018-05-26T02:32:54.594Z,88.95
2018-05-26T02:34:03.790Z,88.95
2018-05-26T02:35:12.601Z,88.9
2018-05-26T02:36:21.752Z,88.71
2018-05-26T02:37:30.614Z,89.48
2018-05-26T02:38:39.479Z,88.81
2018-05-26T02:39:48.620Z,89.29
2018-05-26T02:40:57.493Z,89.86
2018-05-26T02:42:06.914Z,89.19
2018-05-26T02:43:16.622Z,89.29
2018-05-26T02:44:26.052Z,89.76
2018-05-26T02:45:35.194Z,89.29
2018-05-26T02:46:44.055Z,89
2018-05-26T02:47:52.918Z,89.29
2018-05-26T02:49:01.835Z,89.95
2018-05-26T02:50:11.534Z,89.95
2018-05-26T02:51:20.951Z,89.29
2018-05-26T02:52:29.819Z,89.95
2018-05-26T02:53:38.970Z,90.91
2018-05-26T02:54:48.462Z,90.63
2018-05-26T02:55:57.606Z,91.3
2018-05-26T02:57:06.741Z,90.05
2018-05-26T02:58:15.605Z,90.82
2018-05-26T02:59:25.040Z,89.67
2018-05-26T03:00:34.235Z,90.53
2018-05-26T03:01:43.375Z,90.63
2018-05-26T03:02:52.796Z,91.3
2018-05-26T03:04:02.213Z,91.3
2018-05-26T03:05:11.636Z,91.49
2018-05-26T03:06:21.155Z,90.72
2018-05-26T03:07:30.317Z,91.11
2018-05-26T03:08:39.167Z,90.82
2018-05-26T03:09:48.599Z,91.06
2018-05-26T03:10:57.467Z,90.44
2018-05-26T03:12:06.485Z,91.11
2018-05-26T03:13:15.339Z,91.49
2018-05-26T03:14:24.480Z,91.39
2018-05-26T03:15:33.622Z,92.25
2018-05-26T03:16:42.483Z,91.39
2018-05-26T03:17:51.769Z,91.68
2018-05-26T03:19:00.635Z,90.96
2018-05-26T03:20:09.499Z,91.11
2018-05-26T03:21:18.363Z,91.3
2018-05-26T03:22:27.222Z,91.3
2018-05-26T03:23:36.135Z,90.58
2018-05-26T03:24:45.003Z,91.35
2018-05-26T03:25:53.864Z,91.39
2018-05-26T03:27:02.725Z,91.3
2018-05-26T03:28:11.872Z,90.44
2018-05-26T03:29:21.025Z,90.82
2018-05-26T03:30:29.892Z,91.06
2018-05-26T03:31:39.331Z,91.06
2018-05-26T03:32:48.213Z,91.25
2018-05-26T03:33:57.078Z,91.06
2018-05-26T03:35:06.092Z,90.87
2018-05-26T03:36:15.011Z,91.16
2018-05-26T03:37:23.812Z,90.87
2018-05-26T03:38:32.671Z,91.63
2018-05-26T03:39:41.532Z,91.63
2018-05-26T03:40:50.505Z,91.83
2018-05-26T03:41:59.642Z,92.02
2018-05-26T03:43:08.502Z,92.3
2018-05-26T03:44:17.364Z,92.21
2018-05-26T03:45:26.227Z,92.11
2018-05-26T03:46:35.091Z,91.25
2018-05-26T03:47:44.231Z,92.11
2018-05-26T03:48:53.091Z,91.44
2018-05-26T03:50:02.242Z,91.73
2018-05-26T03:51:11.667Z,92.02
2018-05-26T03:52:20.872Z,92.59
2018-05-26T03:53:29.733Z,92.4
2018-05-26T03:54:38.594Z,92.49
2018-05-26T03:55:47.455Z,92.3
2018-05-26T03:56:56.316Z,92.3
2018-05-26T03:58:05.227Z,92.3
2018-05-26T03:59:14.374Z,92.3
2018-05-26T04:00:23.246Z,92.69
2018-05-26T04:01:32.106Z,92.69
2018-05-26T04:02:40.966Z,92.4
2018-05-26T04:03:49.880Z,92.4
2018-05-26T04:04:59.027Z,92.49
2018-05-26T04:06:07.937Z,92.97
2018-05-26T04:07:17.027Z,92.49
2018-05-26T04:08:25.894Z,92.49
2018-05-26T04:09:34.804Z,92.69
2018-05-26T04:10:43.947Z,92.21
2018-05-26T04:11:52.809Z,92.21
2018-05-26T04:13:01.672Z,92.69
2018-05-26T04:14:10.812Z,92.02
2018-05-26T04:15:19.823Z,92.3
2018-05-26T04:16:28.970Z,91.63
2018-05-26T04:17:37.831Z,91.16
2018-05-26T04:18:46.698Z,91.53
2018-05-26T04:19:55.556Z,91.83
2018-05-26T04:21:04.769Z,92.02
2018-05-26T04:22:13.629Z,91.92
2018-05-26T04:23:22.768Z,91.73
2018-05-26T04:24:31.907Z,91.83
2018-05-26T04:25:41.085Z,92.02
2018-05-26T04:26:50.281Z,91.92
2018-05-26T04:27:59.151Z,92.21
2018-05-26T04:29:08.565Z,91.73
2018-05-26T04:30:17.427Z,91.73
2018-05-26T04:31:26.345Z,92.49
2018-05-26T04:32:35.352Z,92.11
2018-05-26T04:33:44.493Z,92.69
2018-05-26T04:34:53.352Z,92.49
2018-05-26T04:36:02.215Z,92.4
2018-05-26T04:37:11.634Z,93.35
2018-05-26T04:38:20.645Z,92.3
2018-05-26T04:39:29.844Z,92.69
2018-05-26T04:40:38.983Z,93.26
2018-05-26T04:41:48.122Z,92.49
2018-05-26T04:42:57.264Z,92.49
2018-05-26T04:44:06.229Z,92.3
2018-05-26T04:45:15.090Z,92.11
2018-05-26T04:46:23.952Z,92.3
2018-05-26T04:47:32.814Z,92.69
2018-05-26T04:48:41.952Z,93.26
2018-05-26T04:49:50.867Z,93.07
2018-05-26T04:50:59.731Z,92.69
2018-05-26T04:52:08.593Z,93.35
2018-05-26T04:53:17.454Z,93.07
2018-05-26T04:54:26.316Z,92.69
2018-05-26T04:55:35.452Z,92.59
2018-05-26T04:56:44.871Z,93.07
2018-05-26T04:57:53.740Z,92.69
2018-05-26T04:59:03.161Z,92.88
2018-05-26T05:00:12.018Z,92.69
2018-05-26T05:01:20.979Z,93.07
2018-05-26T05:02:29.846Z,92.59
2018-05-26T05:03:38.701Z,92.49
2018-05-26T05:04:47.859Z,93.07
2018-05-26T05:05:56.721Z,92.69
2018-05-26T05:07:05.733Z,92.49
2018-05-26T05:08:14.592Z,93.3
2018-05-26T05:09:23.454Z,93.07
2018-05-26T05:10:32.315Z,93.74
2018-05-26T05:11:41.467Z,92.88
2018-05-26T05:12:50.475Z,92.73
2018-05-26T05:13:59.614Z,92.73
2018-05-26T05:15:08.476Z,92.11
2018-05-26T05:16:17.338Z,92.49
2018-05-26T05:17:26.476Z,92.63
2018-05-26T05:18:35.338Z,92.78
2018-05-26T05:19:44.199Z,93.4
2018-05-26T05:20:53.062Z,93.69
2018-05-26T05:22:01.924Z,93.02
2018-05-26T05:23:11.071Z,93.4
2018-05-26T05:24:20.262Z,93.02
2018-05-26T05:25:29.119Z,93.5
2018-05-26T05:26:37.979Z,93.4
2018-05-26T05:27:47.199Z,92.54
2018-05-26T05:28:56.062Z,93.59
2018-05-26T05:30:05.558Z,93.12
2018-05-26T05:31:14.696Z,92.73
2018-05-26T05:32:23.559Z,92.83
2018-05-26T05:33:32.421Z,92.83
2018-05-26T05:34:41.563Z,93.5
2018-05-26T05:35:50.576Z,93.21
2018-05-26T05:36:59.436Z,92.44
2018-05-26T05:38:08.296Z,91.72
2018-05-26T05:39:17.157Z,92.35
2018-05-26T05:40:26.027Z,92.54
2018-05-26T05:41:35.237Z,93.4
2018-05-26T05:42:44.098Z,93.26
2018-05-26T05:43:53.239Z,93.07
2018-05-26T05:45:02.106Z,93.26
2018-05-26T05:46:10.969Z,93.45
2018-05-26T05:47:19.932Z,92.58
2018-05-26T05:48:28.795Z,93.07
2018-05-26T05:49:37.656Z,92.4
2018-05-26T05:50:46.518Z,92.21
2018-05-26T05:51:55.382Z,92.4
2018-05-26T05:53:04.673Z,92.21
2018-05-26T05:54:13.536Z,91.72
2018-05-26T05:55:22.400Z,91.72
2018-05-26T05:56:31.575Z,92.01
2018-05-26T05:57:40.399Z,91.82
2018-05-26T05:58:49.271Z,91.92
2018-05-26T05:59:58.135Z,91.44
2018-05-26T06:01:07.325Z,91.53
2018-05-26T06:02:16.188Z,91.72
2018-05-26T06:03:25.327Z,91.34
2018-05-26T06:04:34.539Z,91.05
2018-05-26T06:05:43.683Z,91.05
2018-05-26T06:06:52.546Z,91.49
2018-05-26T06:08:01.409Z,91.49
2018-05-26T06:09:10.272Z,90.67
2018-05-26T06:10:19.514Z,90.33
2018-05-26T06:11:28.666Z,90.23
2018-05-26T06:12:37.805Z,89.86
2018-05-26T06:13:46.669Z,90.23
2018-05-26T06:14:55.543Z,90.14
2018-05-26T06:16:05.352Z,89.86
2018-05-26T06:17:14.496Z,89.95
2018-05-26T06:18:23.360Z,88.99
2018-05-26T06:19:32.225Z,89.18
2018-05-26T06:20:41.085Z,89.28
2018-05-26T06:21:50.227Z,89.66
2018-05-26T06:22:59.090Z,90.81
2018-05-26T06:24:08.235Z,90.91
2018-05-26T06:25:17.099Z,91
2018-05-26T06:26:26.015Z,90.62
2018-05-26T06:27:35.221Z,89.51
2018-05-26T06:28:44.084Z,89.9
2018-05-26T06:29:52.947Z,90.09
2018-05-26T06:31:01.810Z,89.23
2018-05-26T06:32:10.677Z,89.13
2018-05-26T06:33:19.691Z,89.51
2018-05-26T06:34:28.561Z,89.71
2018-05-26T06:35:37.422Z,90
2018-05-26T06:36:46.284Z,89.8
2018-05-26T06:37:55.432Z,89.8
2018-05-26T06:39:04.545Z,89.23
2018-05-26T06:40:13.962Z,88.75
2018-05-26T06:41:22.827Z,89.71
2018-05-26T06:42:31.689Z,88.75
2018-05-26T06:43:40.554Z,88.37
2018-05-26T06:44:49.614Z,88.27
2018-05-26T06:45:58.483Z,88.41
2018-05-26T06:47:07.346Z,87.79
2018-05-26T06:48:16.486Z,88.27
2018-05-26T06:49:25.352Z,88.08
2018-05-26T06:50:34.599Z,87.74
2018-05-26T06:51:43.464Z,88.17
2018-05-26T06:52:52.327Z,87.74
2018-05-26T06:54:01.198Z,88.12
2018-05-26T06:55:10.652Z,87.74
2018-05-26T06:56:19.613Z,87.84
2018-05-26T06:57:28.477Z,87.64
2018-05-26T06:58:37.342Z,88.12
2018-05-26T06:59:46.485Z,88.12
2018-05-26T07:00:55.355Z,87.93
2018-05-26T07:02:04.265Z,87.59
2018-05-26T07:03:13.129Z,87.68
2018-05-26T07:04:21.993Z,87.49
2018-05-26T07:05:30.853Z,87.4
2018-05-26T07:06:39.716Z,87.4
2018-05-26T07:07:49.208Z,87.3
2018-05-26T07:08:58.074Z,87.49
2018-05-26T07:10:07.208Z,87.4
2018-05-26T07:11:16.071Z,87.49
2018-05-26T07:12:24.933Z,87.68
2018-05-26T07:13:33.848Z,86.63
2018-05-26T07:14:42.997Z,86.92
2018-05-26T07:15:51.860Z,86.63
2018-05-26T07:17:00.724Z,86.63
2018-05-26T07:18:09.658Z,86.34
2018-05-26T07:19:18.624Z,86.44
2018-05-26T07:20:27.490Z,86.82
2018-05-26T07:21:36.358Z,86.29
2018-05-26T07:22:47.004Z,86.38
2018-05-26T07:23:59.504Z,86.48
2018-05-26T07:25:08.517Z,86.29
2018-05-26T07:26:18.105Z,86.1
2018-05-26T07:27:27.325Z,86.48
2018-05-26T07:28:36.811Z,86.48
2018-05-26T07:29:45.745Z,86.38
2018-05-26T07:30:54.912Z,86.19
2018-05-26T07:32:04.059Z,85.24
2018-05-26T07:33:12.941Z,85.85
2018-05-26T07:34:22.568Z,85.75
2018-05-26T07:35:31.726Z,85.75
2018-05-26T07:36:41.114Z,85.37
2018-05-26T07:37:50.379Z,85.47
2018-05-26T07:38:59.409Z,85.66
2018-05-26T07:40:09.937Z,85.57
2018-05-26T07:41:22.849Z,85.37
2018-05-26T07:42:31.765Z,85.28
2018-05-26T07:43:40.711Z,85.37
2018-05-26T07:44:49.572Z,85.28
2018-05-26T07:45:58.718Z,85.37
2018-05-26T07:47:07.582Z,85.37
2018-05-26T07:48:16.878Z,84.8
2018-05-26T07:49:25.744Z,85.57
2018-05-26T07:50:34.886Z,84.8
2018-05-26T07:51:43.753Z,85.28
2018-05-26T07:52:52.893Z,85.08
2018-05-26T07:54:01.910Z,85.13
2018-05-26T07:55:11.052Z,84.64
2018-05-26T07:56:20.005Z,84.64
2018-05-26T07:57:29.632Z,85.22
2018-05-26T07:58:38.525Z,84.55
2018-05-26T07:59:47.361Z,83.78
2018-05-26T08:00:56.226Z,84.17
2018-05-26T08:02:05.091Z,83.97
2018-05-26T08:03:13.957Z,83.63
2018-05-26T08:04:22.823Z,83.53
2018-05-26T08:05:32.066Z,83.83
2018-05-26T08:06:41.206Z,83.44
2018-05-26T08:07:50.073Z,83.53
2018-05-26T08:08:58.937Z,83.15
2018-05-26T08:10:07.804Z,82.57
2018-05-26T08:11:16.729Z,82.48
2018-05-26T08:12:25.596Z,82.71
2018-05-26T08:13:34.463Z,82.61
2018-05-26T08:14:43.608Z,82.71
2018-05-26T08:15:52.473Z,82.52
2018-05-26T08:17:01.339Z,83.29
2018-05-26T08:18:10.517Z,83.19
2018-05-26T08:19:19.479Z,82.9
2018-05-26T08:20:28.646Z,82.42
2018-05-26T08:21:37.528Z,81.94
2018-05-26T08:22:47.078Z,81.94
2018-05-26T08:23:56.576Z,82.42
2018-05-26T08:25:05.442Z,82.52
2018-05-26T08:26:14.594Z,81.65
2018-05-26T08:27:23.849Z,81.65
2018-05-26T08:28:33.078Z,82.14
2018-05-26T08:29:41.947Z,82.27
2018-05-26T08:30:51.082Z,81.7
2018-05-26T08:31:59.951Z,82.46
2018-05-26T08:33:08.822Z,82.65
2018-05-26T08:34:17.693Z,81.88
2018-05-26T08:35:26.590Z,81.5
2018-05-26T08:36:35.458Z,81.12
2018-05-26T08:37:44.600Z,80.73
2018-05-26T08:38:53.464Z,80.77
2018-05-26T08:40:02.440Z,80.73
2018-05-26T08:41:11.631Z,80.92
2018-05-26T08:42:20.498Z,80.96
2018-05-26T08:43:29.643Z,81.25
2018-05-26T08:44:38.507Z,80.87
2018-05-26T08:45:47.379Z,80.77
2018-05-26T08:46:56.241Z,80.04
2018-05-26T08:48:05.109Z,79.94
2018-05-26T08:49:13.982Z,79.36
2018-05-26T08:50:23.138Z,78.88
2018-05-26T08:51:32.338Z,78.79
2018-05-26T08:52:41.206Z,78.79
2018-05-26T08:53:50.071Z,78.4
2018-05-26T08:54:58.945Z,78.21
2018-05-26T08:56:07.810Z,78.31
2018-05-26T08:57:17.028Z,78.11
2018-05-26T08:58:25.895Z,77.09
2018-05-26T08:59:34.761Z,77.48
2018-05-26T09:00:43.653Z,77.67
2018-05-26T09:01:52.541Z,77.28
2018-05-26T09:03:01.883Z,78.15
2018-05-26T09:04:10.934Z,77.86
2018-05-26T09:05:19.800Z,78.25
2018-05-26T09:06:28.719Z,77.67
2018-05-26T09:07:37.918Z,76.51
2018-05-26T09:08:47.082Z,77
2018-05-26T09:09:56.511Z,76.42
2018-05-26T09:11:05.378Z,77.48
2018-05-26T09:12:14.854Z,76.65
2018-05-26T09:13:23.721Z,76.36
2018-05-26T09:14:32.588Z,76.45
2018-05-26T09:15:41.739Z,76.84
2018-05-26T09:16:50.607Z,76.26
2018-05-26T09:17:59.750Z,76.75
2018-05-26T09:19:08.615Z,75.68
2018-05-26T09:20:17.532Z,75.68
2018-05-26T09:21:26.400Z,75.14
2018-05-26T09:22:35.267Z,75.24
2018-05-26T09:23:44.134Z,74.12
2018-05-26T09:24:53.281Z,74.6
2018-05-26T09:26:02.597Z,74.6
2018-05-26T09:27:11.742Z,74.02
2018-05-26T09:28:20.607Z,74.31
2018-05-26T09:29:29.481Z,73.99
2018-05-26T09:30:38.622Z,74.02
2018-05-26T09:31:47.652Z,73.06
2018-05-26T09:32:57.497Z,72.8
2018-05-26T09:34:07.278Z,73.19
2018-05-26T09:35:16.391Z,73
2018-05-26T09:36:25.850Z,73.28
2018-05-26T09:37:34.869Z,72.32
2018-05-26T09:38:43.734Z,72.9
2018-05-26T09:39:52.617Z,72.84
2018-05-26T09:41:01.780Z,72.06
2018-05-26T09:42:10.934Z,72.06
2018-05-26T09:43:20.408Z,72.55
2018-05-26T09:44:29.553Z,72.64
2018-05-26T09:45:38.419Z,71.88
2018-05-26T09:46:47.285Z,70.9
2018-05-26T09:47:56.151Z,70.9
2018-05-26T09:49:05.169Z,71.3
2018-05-26T09:50:14.035Z,71.88
2018-05-26T09:51:22.902Z,71.1
2018-05-26T09:52:31.769Z,70.56
2018-05-26T09:53:40.636Z,68.14
2018-05-26T09:54:49.787Z,68.62
2018-05-26T09:55:58.960Z,68.24
2018-05-26T09:57:08.461Z,68.43
2018-05-26T09:58:17.322Z,68.62
2018-05-26T09:59:26.187Z,68.43
2018-05-26T10:00:35.158Z,68.82
2018-05-26T10:01:44.024Z,68.43
2018-05-26T10:02:53.169Z,68.82
2018-05-26T10:04:02.040Z,68.82
2018-05-26T10:05:11.186Z,69.68
2018-05-26T10:06:20.204Z,69.3
2018-05-26T10:07:29.356Z,69.01
2018-05-26T10:08:38.223Z,69.4
2018-05-26T10:09:47.091Z,69.43
2018-05-26T10:10:56.031Z,69.82
2018-05-26T10:12:04.901Z,69.75
2018-05-26T10:13:14.050Z,69.62
2018-05-26T10:14:22.952Z,70.1
2018-05-26T10:15:31.844Z,68.46
2018-05-26T10:16:40.708Z,68.59
2018-05-26T10:17:49.778Z,69.08
2018-05-26T10:18:58.923Z,67.18
2018-05-26T10:20:07.791Z,67.18
2018-05-26T10:21:16.944Z,66.88
2018-05-26T10:22:25.811Z,67.85
2018-05-26T10:23:34.832Z,66.4
2018-05-26T10:24:43.699Z,67.11
2018-05-26T10:25:52.842Z,67.3
2018-05-26T10:27:01.713Z,67.3
2018-05-26T10:28:10.610Z,65.75
2018-05-26T10:29:20.002Z,66.24
2018-05-26T10:30:28.870Z,65.75
2018-05-26T10:31:37.737Z,66.34
2018-05-26T10:32:46.631Z,66.92
2018-05-26T10:33:55.950Z,67.27
2018-05-26T10:35:05.396Z,67.18
2018-05-26T10:36:14.263Z,66.69
2018-05-26T10:37:23.130Z,66.14
2018-05-26T10:38:31.997Z,65.47
2018-05-26T10:39:41.428Z,64.98
2018-05-26T10:40:50.488Z,65.66
2018-05-26T10:41:59.432Z,65.85
2018-05-26T10:43:08.575Z,66.69
2018-05-26T10:44:17.443Z,65.24
2018-05-26T10:45:26.595Z,65.82
2018-05-26T10:46:35.835Z,65.27
2018-05-26T10:47:44.718Z,63.14
2018-05-26T10:48:53.599Z,61.14
2018-05-26T10:50:03.271Z,61.85
2018-05-26T10:51:14.177Z,60.65
2018-05-26T10:52:24.994Z,59.81
2018-05-26T10:53:33.977Z,60.1
2018-05-26T10:54:42.855Z,60.58
2018-05-26T10:55:51.769Z,60.49
2018-05-26T10:57:00.945Z,58.84
2018-05-26T10:58:10.101Z,59.23
2018-05-26T10:59:19.248Z,60.2
2018-05-26T11:00:28.119Z,60.71
2018-05-26T11:01:36.988Z,58.39
2018-05-26T11:02:45.859Z,59.06
2018-05-26T11:03:55.075Z,59.36
2018-05-26T11:05:03.951Z,59.94
2018-05-26T11:06:12.822Z,58
2018-05-26T11:07:21.689Z,57.03
2018-05-26T11:08:31.301Z,56.86
2018-05-26T11:09:40.322Z,55.69
2018-05-26T11:10:49.192Z,55.99
2018-05-26T11:11:58.118Z,56.11
2018-05-26T11:13:07.046Z,55.24
2018-05-26T11:14:16.192Z,55.33
2018-05-26T11:15:25.884Z,54.75
2018-05-26T11:16:34.752Z,54.66
2018-05-26T11:17:43.886Z,53.03
2018-05-26T11:18:53.845Z,54
2018-05-26T11:20:02.991Z,53.03
2018-05-26T11:21:11.860Z,52.28
2018-05-26T11:22:20.729Z,52.15
2018-05-26T11:23:29.916Z,52.37
2018-05-26T11:24:39.262Z,51.18
2018-05-26T11:25:48.040Z,52.09
2018-05-26T11:26:57.364Z,51.5
2018-05-26T11:28:06.506Z,51.04
2018-05-26T11:29:15.648Z,50.56
2018-05-26T11:30:24.525Z,50.07
2018-05-26T11:31:34.050Z,50.68
2018-05-26T11:32:43.369Z,48.15
2018-05-26T11:33:52.512Z,48.46
2018-05-26T11:35:01.657Z,48.46
2018-05-26T11:36:10.816Z,48.49
2018-05-26T11:37:19.702Z,47.61
2018-05-26T11:38:28.608Z,47.03
2018-05-26T11:39:37.475Z,46.05
2018-05-26T11:40:46.625Z,46.54
2018-05-26T11:41:55.502Z,46.34
2018-05-26T11:43:04.948Z,46.34
2018-05-26T11:44:14.476Z,47.13
2018-05-26T11:45:23.353Z,48.12
2018-05-26T11:46:32.223Z,46.76
2018-05-26T11:47:41.142Z,44.83
2018-05-26T11:48:50.155Z,43.68
2018-05-26T11:49:59.225Z,43.49
2018-05-26T11:51:08.104Z,44.66
2018-05-26T11:52:16.978Z,44.54
2018-05-26T11:53:26.152Z,45.32
2018-05-26T11:54:35.008Z,43.68
2018-05-26T11:55:44.032Z,44.46
2018-05-26T11:56:52.914Z,43.76
2018-05-26T11:58:02.072Z,44.54
2018-05-26T11:59:10.943Z,43.68
2018-05-26T12:00:19.815Z,43.76
2018-05-26T12:01:28.790Z,43.78
2018-05-26T12:02:37.695Z,43.59
2018-05-26T12:03:46.570Z,43.32
2018-05-26T12:04:55.446Z,42.24
2018-05-26T12:06:04.322Z,41.87
2018-05-26T12:07:13.196Z,41.58
2018-05-26T12:08:22.075Z,41.48
2018-05-26T12:09:31.224Z,42.63
2018-05-26T12:10:40.100Z,43.12
2018-05-26T12:11:48.977Z,43.66
2018-05-26T12:12:57.998Z,42.49
2018-05-26T12:14:07.201Z,43.35
2018-05-26T12:15:16.144Z,43.84
2018-05-26T12:16:25.295Z,42.47
2018-05-26T12:17:34.170Z,41.61
2018-05-26T12:18:43.051Z,42.51
2018-05-26T12:19:51.936Z,42.02
2018-05-26T12:21:01.079Z,41.05
2018-05-26T12:22:09.954Z,41.66
2018-05-26T12:23:19.107Z,42.63
2018-05-26T12:24:27.982Z,40.8
2018-05-26T12:25:36.857Z,39.82
2018-05-26T12:26:45.737Z,39.82
2018-05-26T12:27:54.911Z,40.53
2018-05-26T12:29:03.788Z,39.65
2018-05-26T12:30:12.959Z,39.45
2018-05-26T12:31:21.858Z,40.45
2018-05-26T12:32:31.008Z,38.59
2018-05-26T12:33:40.166Z,38.49
2018-05-26T12:34:49.043Z,38.81
2018-05-26T12:35:58.532Z,39.08
2018-05-26T12:37:07.967Z,39.55
2018-05-26T12:38:16.847Z,39.65
2018-05-26T12:39:25.721Z,39.45
2018-05-26T12:40:34.600Z,39.43
2018-05-26T12:41:43.481Z,39.43
2018-05-26T12:42:52.360Z,39.26
2018-05-26T12:44:01.514Z,38.38
2018-05-26T12:45:10.493Z,39.47
2018-05-26T12:46:19.377Z,38.49
2018-05-26T12:47:28.258Z,38.79
2018-05-26T12:48:37.140Z,38.87
2018-05-26T12:49:46.018Z,40.63
2018-05-26T12:50:54.896Z,39.43
2018-05-26T12:52:03.782Z,39.7
2018-05-26T12:53:12.941Z,39.41
2018-05-26T12:54:22.102Z,39.02
2018-05-26T12:55:30.979Z,39.51
2018-05-26T12:56:39.856Z,39.65
2018-05-26T12:57:48.736Z,38.28
2018-05-26T12:58:57.710Z,37.81
2018-05-26T13:00:06.589Z,37.54
2018-05-26T13:01:15.468Z,36.85
2018-05-26T13:02:24.344Z,36.55
2018-05-26T13:03:33.220Z,36.55
2018-05-26T13:04:42.553Z,35.99
2018-05-26T13:05:51.714Z,35.71
2018-05-26T13:07:00.598Z,36.4
2018-05-26T13:08:09.753Z,35.63
2018-05-26T13:09:18.636Z,34.45
2018-05-26T13:10:27.512Z,34.84
2018-05-26T13:11:36.676Z,34.67
2018-05-26T13:12:45.556Z,35.14
2018-05-26T13:13:54.434Z,34.74
2018-05-26T13:15:03.313Z,35.58
2018-05-26T13:16:12.193Z,37.24
2018-05-26T13:17:21.073Z,36.91
2018-05-26T13:18:30.230Z,37.11
2018-05-26T13:19:39.108Z,36.72
2018-05-26T13:20:48.270Z,36.31
2018-05-26T13:21:57.527Z,36.51
2018-05-26T13:23:06.405Z,37.38
2018-05-26T13:24:15.556Z,36.68
2018-05-26T13:25:24.708Z,36.9
2018-05-26T13:26:33.587Z,36.44
2018-05-26T13:27:42.563Z,37.71
2018-05-26T13:28:51.438Z,37.4
2018-05-26T13:30:00.313Z,37.29
2018-05-26T13:31:09.756Z,38.65
2018-05-26T13:32:18.635Z,39.16
2018-05-26T13:33:27.949Z,37.6
2018-05-26T13:34:37.104Z,37.32
2018-05-26T13:35:45.979Z,37.5
2018-05-26T13:36:55.139Z,36.73
2018-05-26T13:38:04.019Z,36.67
2018-05-26T13:39:12.905Z,35.52
2018-05-26T13:40:21.785Z,35.32
2018-05-26T13:41:30.939Z,35.22
2018-05-26T13:42:40.095Z,35.13
2018-05-26T13:43:48.972Z,35.24
2018-05-26T13:44:58.202Z,34.96
2018-05-26T13:46:07.363Z,35.25
2018-05-26T13:47:16.252Z,34.88
2018-05-26T13:48:25.149Z,33.9
2018-05-26T13:49:34.587Z,34
2018-05-26T13:50:43.656Z,34.69
2018-05-26T13:51:52.546Z,33.23
2018-05-26T13:53:01.434Z,33.25
2018-05-26T13:54:11.710Z,33.64
2018-05-26T13:55:21.113Z,33.7
2018-05-26T13:56:30.204Z,33.22
2018-05-26T13:57:39.057Z,34.3
2018-05-26T13:58:47.939Z,33.31
2018-05-26T13:59:57.217Z,33.41
2018-05-26T14:01:06.236Z,32.43
2018-05-26T14:02:15.171Z,30.88
2018-05-26T14:03:24.053Z,30.6
2018-05-26T14:04:32.939Z,32.27
2018-05-26T14:05:42.098Z,31.5
2018-05-26T14:06:51.000Z,31.6
2018-05-26T14:08:00.001Z,31.58
2018-05-26T14:09:08.882Z,31.29
2018-05-26T14:10:17.769Z,31.6
2018-05-26T14:11:26.662Z,31.79
2018-05-26T14:12:35.870Z,31.99
2018-05-26T14:13:44.788Z,30.73
2018-05-26T14:14:53.844Z,30.82
2018-05-26T14:16:02.729Z,29.94
2018-05-26T14:17:11.910Z,29.35
2018-05-26T14:18:21.249Z,28.97
2018-05-26T14:19:30.253Z,29.24
2018-05-26T14:20:39.459Z,29.43
2018-05-26T14:21:48.344Z,29.24
2018-05-26T14:22:57.506Z,28.95
2018-05-26T14:24:06.686Z,28.86
2018-05-26T14:25:16.072Z,30.05
2018-05-26T14:26:25.078Z,28.97
2018-05-26T14:27:33.964Z,27.91
2018-05-26T14:28:42.856Z,28
2018-05-26T14:29:51.740Z,27.82
2018-05-26T14:31:01.063Z,28.51
2018-05-26T14:32:10.233Z,28.5
2018-05-26T14:33:19.124Z,27.92
2018-05-26T14:34:28.016Z,28.91
2018-05-26T14:35:37.186Z,28.69
2018-05-26T14:36:46.419Z,28.89
2018-05-26T14:37:55.351Z,29.09
2018-05-26T14:39:04.511Z,29.48
2018-05-26T14:40:13.433Z,27.72
2018-05-26T14:41:22.322Z,28.12
2018-05-26T14:42:31.558Z,28.22
2018-05-26T14:43:40.729Z,28.81
2018-05-26T14:44:49.778Z,29
2018-05-26T14:45:58.954Z,28.99
2018-05-26T14:47:08.129Z,29.28
2018-05-26T14:48:17.066Z,28.81
2018-05-26T14:49:25.950Z,28.89
2018-05-26T14:50:34.835Z,29.2
2018-05-26T14:51:43.719Z,29.09
2018-05-26T14:52:52.601Z,30.15
2018-05-26T14:54:01.590Z,30.33